createdAt,value
2017-10-05T00:00:05.026Z,2.13
2017-10-05T00:02:39.173Z,1.67
2017-10-05T00:05:12.750Z,2.70
2017-10-05T00:07:46.970Z,2.03
2017-10-05T00:10:20.446Z,1.93
2017-10-05T00:12:54.062Z,1.80
2017-10-05T00:15:27.527Z,2.40
2017-10-05T00:18:01.014Z,3.50
2017-10-05T00:20:34.609Z,1.80
2017-10-05T00:23:08.693Z,2.23
2017-10-05T00:25:42.294Z,2.17
2017-10-05T00:28:17.055Z,1.93
2017-10-05T00:30:50.667Z,2.07
2017-10-05T00:33:24.194Z,2.10
2017-10-05T00:35:57.900Z,2.30
2017-10-05T00:38:32.321Z,2.10
2017-10-05T00:41:06.598Z,1.83
2017-10-05T00:43:40.093Z,2.60
2017-10-05T00:46:13.741Z,1.73
2017-10-05T00:48:47.306Z,2.30
2017-10-05T00:51:21.061Z,1.93
2017-10-05T00:53:54.764Z,1.73
2017-10-05T00:56:29.058Z,2.47
2017-10-05T00:59:02.683Z,2.20
2017-10-05T01:01:36.370Z,1.90
2017-10-05T01:04:10.288Z,2.53
2017-10-05T01:06:43.753Z,1.83
2017-10-05T01:09:17.335Z,2.03
2017-10-05T01:11:52.314Z,1.93
2017-10-05T01:14:26.320Z,2.20
2017-10-05T01:17:00.082Z,2.50
2017-10-05T01:19:33.629Z,2.33
2017-10-05T01:22:07.340Z,2.97
2017-10-05T01:24:41.150Z,2.10
2017-10-05T01:27:14.865Z,1.90
2017-10-05T01:29:49.323Z,2.10
2017-10-05T01:32:23.032Z,2.37
2017-10-05T01:34:56.565Z,1.77
2017-10-05T01:37:30.379Z,2.33
2017-10-05T01:40:04.065Z,2.67
2017-10-05T01:42:37.822Z,2.47
2017-10-05T01:45:11.692Z,2.37
2017-10-05T01:47:45.486Z,2.13
2017-10-05T01:50:19.206Z,2.07
2017-10-05T01:52:52.949Z,1.80
2017-10-05T01:55:26.753Z,2.50
2017-10-05T01:58:00.619Z,2.10
2017-10-05T02:00:34.206Z,2.10
2017-10-05T02:03:08.221Z,2.00
2017-10-05T02:05:41.753Z,2.20
2017-10-05T02:08:15.381Z,2.43
2017-10-05T02:10:48.990Z,2.70
2017-10-05T02:13:22.617Z,2.17
2017-10-05T02:15:56.321Z,2.23
2017-10-05T02:18:29.922Z,2.50
2017-10-05T02:21:03.601Z,1.83
2017-10-05T02:23:37.954Z,2.20
2017-10-05T02:26:11.546Z,2.77
2017-10-05T02:28:45.149Z,2.27
2017-10-05T02:31:19.237Z,2.17
2017-10-05T02:33:52.762Z,2.40
2017-10-05T02:36:26.586Z,2.20
2017-10-05T02:39:00.172Z,2.80
2017-10-05T02:41:33.849Z,2.27
2017-10-05T02:44:07.490Z,2.20
2017-10-05T02:46:41.576Z,2.13
2017-10-05T02:49:15.386Z,2.37
2017-10-05T02:51:48.987Z,2.50
2017-10-05T02:54:22.546Z,2.47
2017-10-05T02:56:56.293Z,2.40
2017-10-05T02:59:31.530Z,2.23
2017-10-05T03:02:05.129Z,2.17
2017-10-05T03:04:39.446Z,1.87
2017-10-05T03:07:13.046Z,2.50
2017-10-05T03:09:46.737Z,1.93
2017-10-05T03:12:20.332Z,2.20
2017-10-05T03:14:53.955Z,3.70
2017-10-05T03:17:27.501Z,2.03
2017-10-05T03:20:01.162Z,2.90
2017-10-05T03:22:35.633Z,2.47
2017-10-05T03:25:09.140Z,2.77
2017-10-05T03:27:42.786Z,3.77
2017-10-05T03:30:16.494Z,1.90
2017-10-05T03:32:50.301Z,2.80
2017-10-05T03:35:24.712Z,2.07
2017-10-05T03:37:59.210Z,2.30
2017-10-05T03:40:32.827Z,2.17
2017-10-05T03:43:07.150Z,1.80
2017-10-05T03:45:40.721Z,3.37
2017-10-05T03:48:14.294Z,2.20
2017-10-05T03:50:47.945Z,2.10
2017-10-05T03:53:21.502Z,2.13
2017-10-05T03:55:55.165Z,2.23
2017-10-05T03:58:29.526Z,1.87
2017-10-05T04:01:03.254Z,2.13
2017-10-05T04:03:36.718Z,2.60
2017-10-05T04:06:10.342Z,2.17
2017-10-05T04:08:44.834Z,2.10
2017-10-05T04:11:18.449Z,2.20
2017-10-05T04:13:52.098Z,3.30
2017-10-05T04:16:25.674Z,2.20
2017-10-05T04:18:59.301Z,1.97
2017-10-05T04:21:33.617Z,2.03
2017-10-05T04:24:07.105Z,2.60
2017-10-05T04:26:41.738Z,2.20
2017-10-05T04:29:15.218Z,2.10
2017-10-05T04:31:48.799Z,2.50
2017-10-05T04:34:22.334Z,2.63
2017-10-05T04:36:56.650Z,2.40
2017-10-05T04:39:30.250Z,2.50
2017-10-05T04:42:03.858Z,2.40
2017-10-05T04:44:37.422Z,1.60
2017-10-05T04:47:11.991Z,2.43
2017-10-05T04:49:46.470Z,2.67
2017-10-05T04:52:20.230Z,2.20
2017-10-05T04:54:54.109Z,1.83
2017-10-05T04:57:27.610Z,2.40
2017-10-05T05:00:01.474Z,1.60
2017-10-05T05:02:35.113Z,2.70
2017-10-05T05:05:10.266Z,2.17
2017-10-05T05:07:44.741Z,2.03
2017-10-05T05:10:20.653Z,1.70
2017-10-05T05:12:54.331Z,2.57
2017-10-05T05:15:27.792Z,1.80
2017-10-05T05:18:01.442Z,2.03
2017-10-05T05:20:35.080Z,2.30
2017-10-05T05:23:08.685Z,3.83
2017-10-05T05:25:42.238Z,2.57
2017-10-05T05:28:15.838Z,1.97
2017-10-05T05:30:49.525Z,2.60
2017-10-05T05:33:23.137Z,1.40
2017-10-05T05:35:56.841Z,1.90
2017-10-05T05:38:31.058Z,3.33
2017-10-05T05:41:04.549Z,1.90
2017-10-05T05:43:38.333Z,2.77
2017-10-05T05:46:11.909Z,3.83
2017-10-05T05:48:45.662Z,2.03
2017-10-05T05:51:19.158Z,1.90
2017-10-05T05:53:52.717Z,1.73
2017-10-05T05:56:26.418Z,2.47
2017-10-05T05:58:59.961Z,2.37
2017-10-05T06:01:33.565Z,1.77
2017-10-05T06:04:07.070Z,2.17
2017-10-05T06:06:40.613Z,1.93
2017-10-05T06:09:14.225Z,1.90
2017-10-05T06:11:47.978Z,3.00
2017-10-05T06:14:21.775Z,1.80
2017-10-05T06:16:55.482Z,2.00
2017-10-05T06:19:29.965Z,2.17
2017-10-05T06:22:03.458Z,1.40
2017-10-05T06:24:37.103Z,2.10
2017-10-05T06:27:10.710Z,1.77
2017-10-05T06:29:44.211Z,1.60
2017-10-05T06:32:17.752Z,2.00
2017-10-05T06:34:51.396Z,2.90
2017-10-05T06:37:25.015Z,2.10
2017-10-05T06:39:58.699Z,2.23
2017-10-05T06:42:32.258Z,1.57
2017-10-05T06:45:06.621Z,1.57
2017-10-05T06:47:40.118Z,1.50
2017-10-05T06:50:13.825Z,1.53
2017-10-05T06:52:47.530Z,2.10
2017-10-05T06:55:21.129Z,1.90
2017-10-05T06:57:54.822Z,1.87
2017-10-05T07:00:28.434Z,1.70
2017-10-05T07:03:02.014Z,1.60
2017-10-05T07:05:35.587Z,1.50
2017-10-05T07:08:09.389Z,1.40
2017-10-05T07:10:43.342Z,1.93
2017-10-05T07:13:16.962Z,1.43
2017-10-05T07:15:50.670Z,1.53
2017-10-05T07:18:24.210Z,1.80
2017-10-05T07:20:57.865Z,1.70
2017-10-05T07:23:31.704Z,1.63
2017-10-05T07:26:05.257Z,1.40
2017-10-05T07:28:38.957Z,1.63
2017-10-05T07:31:12.533Z,1.93
2017-10-05T07:33:46.165Z,1.47
2017-10-05T07:36:20.670Z,2.27
2017-10-05T07:38:55.094Z,1.30
2017-10-05T07:41:28.701Z,1.93
2017-10-05T07:44:02.144Z,1.90
2017-10-05T07:46:36.509Z,1.53
2017-10-05T07:49:10.032Z,1.50
2017-10-05T07:51:43.497Z,1.50
2017-10-05T07:54:17.085Z,1.70
2017-10-05T07:56:50.613Z,2.10
2017-10-05T07:59:26.262Z,2.10
2017-10-05T08:02:00.554Z,2.47
2017-10-05T08:04:35.062Z,1.40
2017-10-05T08:07:08.680Z,2.03
2017-10-05T08:09:43.021Z,1.63
2017-10-05T08:12:16.727Z,1.60
2017-10-05T08:14:50.443Z,1.73
2017-10-05T08:17:24.115Z,2.00
2017-10-05T08:19:57.734Z,2.43
2017-10-05T08:22:31.333Z,1.93
2017-10-05T08:25:06.438Z,2.33
2017-10-05T08:27:40.177Z,2.50
2017-10-05T08:30:13.774Z,3.13
2017-10-05T08:32:47.377Z,2.40
2017-10-05T08:35:21.294Z,2.90
2017-10-05T08:37:55.826Z,2.40
2017-10-05T08:40:29.474Z,2.10
2017-10-05T08:43:03.073Z,2.17
2017-10-05T08:45:36.814Z,2.47
2017-10-05T08:48:10.316Z,2.47
2017-10-05T08:50:43.991Z,2.10
2017-10-05T08:53:18.301Z,2.03
2017-10-05T08:55:52.650Z,1.90
2017-10-05T08:58:26.134Z,1.40
2017-10-05T09:00:59.858Z,1.53
2017-10-05T09:03:33.533Z,1.80
2017-10-05T09:06:07.310Z,1.70
2017-10-05T09:08:40.910Z,1.37
2017-10-05T09:11:14.462Z,2.57
2017-10-05T09:13:48.179Z,1.60
2017-10-05T09:16:21.742Z,1.60
2017-10-05T09:18:56.066Z,1.67
2017-10-05T09:21:30.602Z,1.70
2017-10-05T09:24:04.278Z,2.10
2017-10-05T09:26:37.936Z,1.83
2017-10-05T09:29:11.815Z,1.30
2017-10-05T09:31:46.109Z,1.50
2017-10-05T09:34:19.693Z,1.40
2017-10-05T09:36:53.333Z,1.80
2017-10-05T09:39:26.929Z,1.83
2017-10-05T09:42:01.329Z,1.90
2017-10-05T09:44:34.953Z,1.63
2017-10-05T09:47:08.864Z,1.53
2017-10-05T09:49:42.327Z,1.40
2017-10-05T09:52:16.070Z,1.77
2017-10-05T09:54:50.565Z,1.43
2017-10-05T09:57:24.274Z,1.70
2017-10-05T09:59:57.997Z,1.53
2017-10-05T10:02:31.486Z,1.20
2017-10-05T10:05:05.293Z,1.37
2017-10-05T10:07:39.678Z,1.90
2017-10-05T10:10:14.233Z,1.43
2017-10-05T10:12:47.877Z,1.50
2017-10-05T10:15:21.438Z,1.70
2017-10-05T10:17:55.534Z,1.37
2017-10-05T10:20:29.969Z,1.20
2017-10-05T10:23:03.562Z,1.23
2017-10-05T10:25:37.173Z,1.30
2017-10-05T10:28:11.565Z,1.30
2017-10-05T10:30:45.398Z,0.97
2017-10-05T10:33:19.686Z,1.00
2017-10-05T10:35:53.414Z,0.90
2017-10-05T10:38:27.105Z,1.13
2017-10-05T10:41:00.678Z,1.10
2017-10-05T10:43:35.019Z,1.10
2017-10-05T10:46:08.723Z,1.20
2017-10-05T10:48:42.322Z,1.00
2017-10-05T10:51:16.045Z,0.90
2017-10-05T10:53:49.549Z,1.30
2017-10-05T10:56:23.867Z,0.90
2017-10-05T10:58:57.438Z,0.90
2017-10-05T11:01:31.068Z,1.30
2017-10-05T11:04:05.349Z,0.97
2017-10-05T11:06:38.846Z,1.03
2017-10-05T11:09:12.554Z,1.00
2017-10-05T11:11:46.209Z,1.17
2017-10-05T11:14:19.885Z,0.90
2017-10-05T11:16:53.491Z,0.90
2017-10-05T11:19:27.814Z,0.90
2017-10-05T11:22:01.522Z,0.93
2017-10-05T11:24:35.237Z,0.80
2017-10-05T11:27:08.782Z,0.70
2017-10-05T11:29:42.323Z,0.80
2017-10-05T11:32:17.145Z,0.90
2017-10-05T11:34:50.861Z,0.77
2017-10-05T11:37:25.386Z,0.80
2017-10-05T11:39:58.965Z,0.90
2017-10-05T11:42:32.561Z,0.70
2017-10-05T11:45:06.602Z,0.90
2017-10-05T11:47:40.988Z,0.77
2017-10-05T11:50:14.597Z,0.83
2017-10-05T11:52:48.201Z,0.80
2017-10-05T11:55:22.009Z,1.17
2017-10-05T11:57:55.561Z,1.10
2017-10-05T12:00:29.073Z,0.83
2017-10-05T12:03:02.590Z,0.80
2017-10-05T12:05:36.201Z,0.97
2017-10-05T12:08:09.800Z,0.70
2017-10-05T12:10:44.231Z,0.77
2017-10-05T12:13:17.710Z,0.80
2017-10-05T12:15:51.334Z,0.70
2017-10-05T12:18:24.873Z,0.80
2017-10-05T12:21:00.075Z,0.80
2017-10-05T12:23:34.482Z,0.83
2017-10-05T12:26:08.852Z,0.80
2017-10-05T12:28:42.450Z,0.70
2017-10-05T12:31:16.209Z,0.70
2017-10-05T12:33:50.010Z,0.90
2017-10-05T12:36:23.723Z,1.00
2017-10-05T12:38:57.389Z,0.60
2017-10-05T12:41:30.922Z,0.80
2017-10-05T12:44:04.522Z,0.80
2017-10-05T12:46:38.088Z,1.10
2017-10-05T12:49:11.813Z,0.80
2017-10-05T12:51:45.423Z,0.97
2017-10-05T12:54:19.021Z,0.90
2017-10-05T12:56:53.321Z,0.70
2017-10-05T12:59:26.837Z,0.80
2017-10-05T13:02:00.478Z,0.60
2017-10-05T13:04:34.141Z,0.60
2017-10-05T13:07:08.429Z,0.63
2017-10-05T13:09:42.037Z,0.60
2017-10-05T13:12:15.662Z,0.60
2017-10-05T13:14:49.217Z,0.60
2017-10-05T13:17:22.835Z,0.50
2017-10-05T13:19:56.461Z,0.60
2017-10-05T13:22:30.034Z,0.60
2017-10-05T13:25:03.626Z,0.70
2017-10-05T13:27:37.270Z,1.03
2017-10-05T13:30:10.966Z,0.83
2017-10-05T13:32:44.761Z,0.90
2017-10-05T13:35:18.470Z,0.80
2017-10-05T13:37:52.054Z,0.83
2017-10-05T13:40:25.688Z,0.90
2017-10-05T13:43:00.370Z,0.77
2017-10-05T13:45:34.108Z,1.00
2017-10-05T13:48:07.814Z,0.90
2017-10-05T13:50:41.622Z,0.93
2017-10-05T13:53:15.214Z,0.80
2017-10-05T13:55:48.817Z,0.90
2017-10-05T13:58:22.409Z,1.00
2017-10-05T14:00:56.029Z,0.97
2017-10-05T14:03:29.578Z,0.90
2017-10-05T14:06:04.865Z,1.07
2017-10-05T14:08:38.422Z,1.77
2017-10-05T14:11:11.974Z,1.10
2017-10-05T14:13:45.562Z,0.97
2017-10-05T14:16:19.281Z,1.37
2017-10-05T14:18:52.975Z,1.37
2017-10-05T14:21:28.117Z,1.37
2017-10-05T14:24:01.932Z,1.40
2017-10-05T14:26:35.620Z,1.27
2017-10-05T14:29:09.212Z,1.40
2017-10-05T14:31:42.810Z,1.17
2017-10-05T14:34:16.290Z,1.30
2017-10-05T14:36:50.546Z,1.00
2017-10-05T14:39:24.234Z,1.03
2017-10-05T14:41:58.175Z,1.33
2017-10-05T14:44:31.793Z,2.10
2017-10-05T14:47:05.337Z,1.60
2017-10-05T14:49:38.833Z,1.50
2017-10-05T14:52:12.434Z,1.37
2017-10-05T14:54:45.941Z,1.20
2017-10-05T14:57:19.537Z,1.40
2017-10-05T14:59:54.441Z,0.90
2017-10-05T15:02:28.777Z,1.57
2017-10-05T15:05:02.558Z,1.00
2017-10-05T15:07:36.163Z,1.10
2017-10-05T15:10:09.693Z,1.20
2017-10-05T15:12:43.190Z,1.10
2017-10-05T15:15:17.711Z,1.10
2017-10-05T15:17:51.318Z,1.23
2017-10-05T15:20:25.115Z,1.00
2017-10-05T15:22:58.818Z,1.00
2017-10-05T15:25:32.304Z,1.27
2017-10-05T15:28:05.894Z,1.10
2017-10-05T15:30:39.626Z,0.87
2017-10-05T15:33:14.029Z,0.87
2017-10-05T15:35:47.689Z,0.90
2017-10-05T15:38:21.446Z,1.10
2017-10-05T15:40:54.902Z,1.30
2017-10-05T15:43:28.525Z,1.00
2017-10-05T15:46:02.105Z,1.03
2017-10-05T15:48:35.621Z,1.20
2017-10-05T15:51:09.350Z,0.73
2017-10-05T15:53:42.953Z,0.80
2017-10-05T15:56:16.690Z,0.80
2017-10-05T15:58:51.163Z,0.90
2017-10-05T16:01:24.679Z,0.80
2017-10-05T16:03:58.997Z,0.60
2017-10-05T16:06:32.890Z,1.03
2017-10-05T16:09:06.623Z,0.70
2017-10-05T16:11:40.234Z,0.80
2017-10-05T16:14:13.810Z,0.70
2017-10-05T16:16:47.410Z,0.70
2017-10-05T16:19:21.217Z,1.03
2017-10-05T16:21:55.641Z,0.83
2017-10-05T16:24:29.434Z,4.33
2017-10-05T16:27:02.998Z,4.33
2017-10-05T16:29:36.681Z,5.27
2017-10-05T16:32:11.166Z,3.50
2017-10-05T16:34:44.779Z,4.27
2017-10-05T16:37:18.253Z,1.23
2017-10-05T16:39:51.989Z,1.00
2017-10-05T16:42:25.462Z,1.30
2017-10-05T16:44:59.569Z,1.90
2017-10-05T16:47:33.282Z,0.87
2017-10-05T16:50:06.850Z,1.30
2017-10-05T16:52:40.588Z,1.10
2017-10-05T16:55:14.075Z,0.80
2017-10-05T16:57:47.625Z,0.87
2017-10-05T17:00:22.782Z,1.00
2017-10-05T17:02:56.314Z,0.90
2017-10-05T17:05:30.105Z,0.80
2017-10-05T17:08:03.726Z,0.83
2017-10-05T17:10:37.321Z,1.00
2017-10-05T17:13:11.850Z,2.27
2017-10-05T17:15:45.474Z,0.90
2017-10-05T17:18:19.146Z,1.07
2017-10-05T17:20:52.849Z,1.20
2017-10-05T17:23:27.134Z,0.80
2017-10-05T17:26:00.768Z,1.00
2017-10-05T17:28:34.272Z,1.00
2017-10-05T17:31:08.172Z,0.77
2017-10-05T17:33:41.728Z,1.50
2017-10-05T17:36:16.408Z,0.77
2017-10-05T17:38:50.932Z,0.80
2017-10-05T17:41:25.442Z,1.00
2017-10-05T17:43:59.779Z,0.80
2017-10-05T17:46:34.366Z,1.20
2017-10-05T17:49:08.674Z,1.10
2017-10-05T17:51:42.173Z,1.57
2017-10-05T17:54:15.724Z,1.70
2017-10-05T17:56:49.522Z,1.27
2017-10-05T17:59:23.074Z,2.33
2017-10-05T18:01:56.589Z,5.10
2017-10-05T18:04:30.183Z,4.77
2017-10-05T18:07:04.018Z,3.13
2017-10-05T18:09:37.620Z,0.90
2017-10-05T18:12:11.218Z,2.30
2017-10-05T18:14:46.259Z,1.30
2017-10-05T18:17:19.755Z,0.80
2017-10-05T18:19:53.236Z,0.70
2017-10-05T18:22:26.991Z,1.33
2017-10-05T18:25:00.623Z,0.70
2017-10-05T18:27:34.264Z,0.93
2017-10-05T18:30:07.854Z,1.00
2017-10-05T18:32:41.297Z,1.00
2017-10-05T18:35:14.754Z,0.97
2017-10-05T18:37:48.290Z,1.00
2017-10-05T18:40:21.991Z,1.00
2017-10-05T18:42:55.443Z,1.20
2017-10-05T18:45:28.883Z,1.10
2017-10-05T18:48:02.326Z,0.90
2017-10-05T18:50:35.982Z,1.10
2017-10-05T18:53:09.635Z,1.30
2017-10-05T18:55:43.154Z,1.00
2017-10-05T18:58:16.739Z,1.20
2017-10-05T19:00:50.258Z,1.10
2017-10-05T19:03:23.893Z,1.20
2017-10-05T19:05:57.543Z,1.23
2017-10-05T19:08:31.063Z,1.37
2017-10-05T19:11:05.331Z,4.17
2017-10-05T19:13:38.889Z,3.63
2017-10-05T19:16:12.738Z,2.50
2017-10-05T19:18:46.351Z,1.20
2017-10-05T19:21:19.827Z,1.20
2017-10-05T19:23:53.300Z,1.00
2017-10-05T19:26:26.743Z,1.10
2017-10-05T19:29:00.267Z,1.43
2017-10-05T19:31:33.946Z,1.60
2017-10-05T19:34:07.455Z,1.10
2017-10-05T19:36:41.050Z,1.40
2017-10-05T19:39:14.735Z,1.70
2017-10-05T19:41:49.046Z,1.60
2017-10-05T19:44:22.591Z,1.30
2017-10-05T19:46:56.233Z,1.13
2017-10-05T19:49:29.915Z,1.30
2017-10-05T19:52:03.507Z,1.50
2017-10-05T19:54:37.790Z,1.47
2017-10-05T19:57:12.790Z,1.00
2017-10-05T19:59:46.547Z,1.20
2017-10-05T20:02:20.111Z,1.83
2017-10-05T20:04:53.705Z,1.50
2017-10-05T20:07:27.154Z,5.53
2017-10-05T20:10:00.691Z,9.87
2017-10-05T20:12:34.199Z,6.30
2017-10-05T20:15:18.682Z,1.60
2017-10-05T20:17:53.082Z,1.50
2017-10-05T20:20:32.406Z,1.50
2017-10-05T20:23:08.442Z,1.13
2017-10-05T20:25:44.291Z,1.40
2017-10-05T20:28:27.762Z,1.30
2017-10-05T20:31:02.515Z,1.97
2017-10-05T20:33:35.946Z,1.40
2017-10-05T20:36:09.474Z,1.20
2017-10-05T20:38:43.110Z,1.53
2017-10-05T20:41:16.555Z,1.60
2017-10-05T20:43:50.062Z,1.60
2017-10-05T20:46:23.607Z,2.00
2017-10-05T20:48:57.194Z,2.90
2017-10-05T20:51:30.726Z,1.80
2017-10-05T20:54:04.250Z,1.50
2017-10-05T20:56:37.934Z,1.70
2017-10-05T20:59:11.478Z,2.00
2017-10-05T21:01:45.021Z,1.10
2017-10-05T21:04:18.615Z,1.60
2017-10-05T21:06:52.902Z,1.57
2017-10-05T21:09:26.470Z,1.90
2017-10-05T21:12:00.016Z,2.13
2017-10-05T21:14:33.610Z,2.17
2017-10-05T21:17:07.818Z,2.70
2017-10-05T21:19:42.034Z,2.47
2017-10-05T21:22:16.250Z,1.93
2017-10-05T21:24:50.458Z,2.00
2017-10-05T21:27:24.007Z,2.37
2017-10-05T21:29:57.608Z,1.90
2017-10-05T21:32:31.886Z,1.83
2017-10-05T21:35:06.098Z,1.77
2017-10-05T21:37:40.452Z,2.13
2017-10-05T21:40:14.022Z,2.17
2017-10-05T21:42:47.546Z,2.50
2017-10-05T21:45:21.202Z,2.50
2017-10-05T21:47:55.631Z,2.17
2017-10-05T21:50:29.154Z,1.93
2017-10-05T21:53:02.677Z,2.27
2017-10-05T21:55:36.148Z,2.00
2017-10-05T21:58:09.645Z,2.07
2017-10-05T22:00:43.143Z,1.77
2017-10-05T22:03:16.694Z,1.97
2017-10-05T22:05:50.127Z,2.10
2017-10-05T22:08:23.657Z,2.17
2017-10-05T22:10:57.195Z,1.53
2017-10-05T22:13:30.867Z,1.70
2017-10-05T22:16:04.390Z,2.10
2017-10-05T22:18:38.778Z,1.70
2017-10-05T22:21:13.054Z,1.40
2017-10-05T22:23:46.575Z,2.37
2017-10-05T22:26:20.078Z,1.97
2017-10-05T22:28:53.686Z,1.73
2017-10-05T22:31:27.292Z,1.70
2017-10-05T22:34:00.830Z,1.50
2017-10-05T22:36:34.498Z,1.50
2017-10-05T22:39:08.786Z,2.30
2017-10-05T22:41:42.994Z,1.50
2017-10-05T22:44:17.230Z,1.60
2017-10-05T22:46:50.691Z,1.40
2017-10-05T22:49:24.205Z,1.10
2017-10-05T22:51:57.839Z,2.00
2017-10-05T22:54:31.354Z,1.60
2017-10-05T22:57:04.801Z,1.43
2017-10-05T22:59:38.314Z,1.30
2017-10-05T23:02:12.623Z,1.20
2017-10-05T23:04:46.155Z,1.50
2017-10-05T23:07:19.735Z,1.20
2017-10-05T23:09:53.351Z,1.87
2017-10-05T23:12:27.000Z,1.47
2017-10-05T23:15:01.290Z,1.47
2017-10-05T23:17:34.978Z,1.50
2017-10-05T23:20:09.362Z,0.90
2017-10-05T23:22:43.090Z,1.60
2017-10-05T23:25:16.759Z,3.60
2017-10-05T23:27:50.391Z,2.77
2017-10-05T23:30:23.839Z,5.40
2017-10-05T23:32:57.290Z,5.90
2017-10-05T23:35:30.850Z,13.70
2017-10-05T23:38:04.526Z,3.73
2017-10-05T23:40:38.920Z,2.20
2017-10-05T23:43:12.463Z,1.70
2017-10-05T23:45:46.229Z,1.10
2017-10-05T23:48:19.918Z,1.50
2017-10-05T23:50:54.349Z,1.33
2017-10-05T23:53:28.718Z,1.17
2017-10-05T23:56:02.359Z,1.80
2017-10-05T23:58:35.859Z,1.30
